createdAt,value
2018-07-15T00:57:17.274Z,99.90
2018-07-15T00:59:47.149Z,99.90
2018-07-15T01:02:15.595Z,99.90
2018-07-15T01:04:45.173Z,99.90
2018-07-15T01:07:13.685Z,99.90
2018-07-15T01:09:42.361Z,99.90
2018-07-15T01:12:11.319Z,99.90
2018-07-15T01:14:39.941Z,99.90
2018-07-15T01:17:08.652Z,99.90
2018-07-15T01:19:37.513Z,99.90
2018-07-15T01:22:07.187Z,99.90
2018-07-15T01:24:36.685Z,99.90
2018-07-15T01:27:05.783Z,99.90
2018-07-15T01:29:34.175Z,99.90
2018-07-15T01:32:03.049Z,99.90
2018-07-15T01:34:31.713Z,99.90
2018-07-15T01:37:00.382Z,99.90
2018-07-15T01:39:29.001Z,99.90
2018-07-15T01:41:57.704Z,99.90
2018-07-15T01:44:26.476Z,99.90
2018-07-15T01:46:56.688Z,99.90
2018-07-15T01:49:25.715Z,99.90
2018-07-15T01:51:54.259Z,99.90
2018-07-15T01:54:23.878Z,99.90
2018-07-15T01:56:52.302Z,99.90
2018-07-15T01:59:21.061Z,99.90
2018-07-15T02:01:49.686Z,99.90
2018-07-15T02:04:19.652Z,99.90
2018-07-15T02:06:48.084Z,99.90
2018-07-15T02:09:16.776Z,99.90
2018-07-15T02:11:46.417Z,99.90
2018-07-15T02:14:15.000Z,99.90
2018-07-15T02:16:43.774Z,99.90
2018-07-15T02:19:12.381Z,99.90
2018-07-15T02:21:41.801Z,99.90
2018-07-15T02:24:10.732Z,99.90
2018-07-15T02:26:39.269Z,99.90
2018-07-15T02:29:08.248Z,99.90
2018-07-15T02:31:36.742Z,99.90
2018-07-15T02:34:06.620Z,99.90
2018-07-15T02:36:35.468Z,99.90
2018-07-15T02:39:05.084Z,99.90
2018-07-15T02:41:33.991Z,99.90
2018-07-15T02:44:02.985Z,99.90
2018-07-15T02:46:31.486Z,99.90
2018-07-15T02:49:00.537Z,99.90
2018-07-15T02:51:29.286Z,99.90
2018-07-15T02:53:58.112Z,99.90
2018-07-15T02:56:27.748Z,99.90
2018-07-15T02:58:56.556Z,99.90
2018-07-15T03:01:26.489Z,99.90
2018-07-15T03:03:55.037Z,99.90
2018-07-15T03:06:23.433Z,99.90
2018-07-15T03:11:20.822Z,99.90
2018-07-15T03:13:50.084Z,99.90
2018-07-15T03:16:18.513Z,99.90
2018-07-15T03:18:47.053Z,99.90
2018-07-15T03:21:15.525Z,99.90
2018-07-15T03:23:44.158Z,99.90
2018-07-15T03:26:12.900Z,99.90
2018-07-15T03:28:41.352Z,99.90
2018-07-15T03:31:10.064Z,99.90
2018-07-15T03:33:38.804Z,99.90
2018-07-15T03:36:07.218Z,99.90
2018-07-15T03:38:35.809Z,99.90
2018-07-15T03:41:04.242Z,99.90
2018-07-15T03:43:32.688Z,99.90
2018-07-15T03:46:01.164Z,99.90
2018-07-15T03:48:29.581Z,99.90
2018-07-15T03:50:59.065Z,99.90
2018-07-15T03:53:27.485Z,99.90
2018-07-15T03:55:56.430Z,99.90
2018-07-15T03:58:24.867Z,99.90
2018-07-15T04:00:53.599Z,99.90
2018-07-15T04:03:22.042Z,99.90
2018-07-15T04:05:51.405Z,99.90
2018-07-15T04:08:20.236Z,99.90
2018-07-15T04:10:49.391Z,99.90
2018-07-15T04:13:18.003Z,99.90
2018-07-15T04:15:46.811Z,99.90
2018-07-15T04:18:16.053Z,99.90
2018-07-15T04:20:44.470Z,99.90
2018-07-15T04:23:14.020Z,99.90
2018-07-15T04:25:42.533Z,99.90
2018-07-15T04:28:11.451Z,99.90
2018-07-15T04:30:40.090Z,99.90
2018-07-15T04:33:08.807Z,99.90
2018-07-15T04:35:37.416Z,99.90
2018-07-15T04:38:05.893Z,99.90
2018-07-15T04:40:34.284Z,99.90
2018-07-15T04:43:02.851Z,99.90
2018-07-15T04:45:31.675Z,99.90
2018-07-15T04:50:29.400Z,99.90
2018-07-15T04:52:58.345Z,99.90
2018-07-15T04:55:26.795Z,99.90
2018-07-15T04:57:55.733Z,99.90
2018-07-15T05:00:24.536Z,99.90
2018-07-15T05:02:53.992Z,99.90
2018-07-15T05:05:22.947Z,99.90
2018-07-15T05:07:51.601Z,99.90
2018-07-15T05:10:20.412Z,99.90
2018-07-15T05:12:49.358Z,99.90
2018-07-15T05:15:18.501Z,99.90
2018-07-15T05:17:47.033Z,99.90
2018-07-15T05:20:15.669Z,99.90
2018-07-15T05:22:44.887Z,99.90
2018-07-15T05:25:14.253Z,99.90
2018-07-15T05:27:42.862Z,99.90
2018-07-15T05:30:11.356Z,99.90
2018-07-15T05:32:40.323Z,99.90
2018-07-15T05:35:09.164Z,99.90
2018-07-15T05:37:37.826Z,99.90
2018-07-15T05:40:06.224Z,99.90
2018-07-15T05:42:34.839Z,99.90
2018-07-15T05:45:03.708Z,99.90
2018-07-15T05:47:33.088Z,99.90
2018-07-15T05:50:01.674Z,99.90
2018-07-15T05:52:30.314Z,99.90
2018-07-15T05:54:58.735Z,99.90
2018-07-15T05:57:27.188Z,99.90
2018-07-15T05:59:56.363Z,99.90
2018-07-15T06:02:24.763Z,99.90
2018-07-15T06:04:53.270Z,99.90
2018-07-15T06:07:21.988Z,99.90
2018-07-15T06:09:51.442Z,99.90
2018-07-15T06:12:20.258Z,99.90
2018-07-15T06:14:49.185Z,99.90
2018-07-15T06:17:17.864Z,99.90
2018-07-15T06:19:46.493Z,96.70
2018-07-15T06:22:14.997Z,95.70
2018-07-15T06:24:44.101Z,95.90
2018-07-15T06:27:13.021Z,93.00
2018-07-15T06:29:41.689Z,91.90
2018-07-15T06:32:10.606Z,89.80
2018-07-15T06:34:39.322Z,90.50
2018-07-15T06:37:07.963Z,91.70
2018-07-15T06:39:36.368Z,91.00
2018-07-15T06:42:05.049Z,89.40
2018-07-15T06:44:33.519Z,88.00
2018-07-15T06:47:12.188Z,84.20
2018-07-15T06:49:41.539Z,79.00
2018-07-15T06:52:09.970Z,79.70
2018-07-15T06:54:38.819Z,75.30
2018-07-15T06:57:07.269Z,73.00
2018-07-15T06:59:35.966Z,66.30
2018-07-15T07:02:04.670Z,65.40
2018-07-15T07:04:33.441Z,65.90
2018-07-15T07:07:02.145Z,66.70
2018-07-15T07:09:30.552Z,62.90
2018-07-15T07:11:59.001Z,64.50
2018-07-15T07:14:27.630Z,65.90
2018-07-15T07:16:56.057Z,67.40
2018-07-15T07:19:24.964Z,64.20
2018-07-15T07:21:53.719Z,58.10
2018-07-15T07:24:22.662Z,56.50
2018-07-15T07:26:51.323Z,57.10
2018-07-15T07:29:21.376Z,58.30
2018-07-15T07:31:49.870Z,60.00
2018-07-15T07:34:18.281Z,54.80
2018-07-15T07:36:46.953Z,53.90
2018-07-15T07:39:16.641Z,52.70
2018-07-15T07:41:45.280Z,52.20
2018-07-15T07:44:14.107Z,50.20
2018-07-15T07:46:42.550Z,49.30
2018-07-15T07:49:11.127Z,49.80
2018-07-15T07:51:41.265Z,49.40
2018-07-15T07:54:09.700Z,47.60
2018-07-15T07:56:38.280Z,48.80
2018-07-15T07:59:07.079Z,44.90
2018-07-15T08:01:35.694Z,46.00
2018-07-15T08:04:04.504Z,44.60
2018-07-15T08:06:32.893Z,45.10
2018-07-15T08:09:01.487Z,43.30
2018-07-15T08:11:30.427Z,45.20
2018-07-15T08:13:58.853Z,47.00
2018-07-15T08:16:27.700Z,43.80
2018-07-15T08:18:56.571Z,43.20
2018-07-15T08:21:25.315Z,47.10
2018-07-15T08:23:54.156Z,45.70
2018-07-15T08:26:22.679Z,41.00
2018-07-15T08:28:51.631Z,39.80
2018-07-15T08:31:21.145Z,41.30
2018-07-15T08:33:49.564Z,42.10
2018-07-15T08:36:17.907Z,42.40
2018-07-15T08:38:46.663Z,46.10
2018-07-15T08:41:15.278Z,41.80
2018-07-15T08:43:44.110Z,40.60
2018-07-15T08:46:13.846Z,41.90
2018-07-15T08:48:42.473Z,39.40
2018-07-15T08:51:11.093Z,37.00
2018-07-15T08:53:40.664Z,38.10
2018-07-15T08:56:09.130Z,38.50
2018-07-15T08:58:37.724Z,41.00
2018-07-15T09:01:06.603Z,37.80
2018-07-15T09:03:35.285Z,37.20
2018-07-15T09:06:04.894Z,38.40
2018-07-15T09:08:33.473Z,37.60
2018-07-15T09:11:02.244Z,39.70
2018-07-15T09:13:30.967Z,37.80
2018-07-15T09:15:59.657Z,34.60
2018-07-15T09:18:29.215Z,38.40
2018-07-15T09:20:58.490Z,36.50
2018-07-15T09:23:27.018Z,37.80
2018-07-15T09:25:55.610Z,37.70
2018-07-15T09:28:24.824Z,33.20
2018-07-15T09:30:54.829Z,35.00
2018-07-15T09:35:51.636Z,31.90
2018-07-15T09:38:20.998Z,32.30
2018-07-15T09:40:50.197Z,35.90
2018-07-15T09:43:18.951Z,32.50
2018-07-15T09:45:47.442Z,33.50
2018-07-15T09:48:16.861Z,37.70
2018-07-15T09:50:45.934Z,36.50
2018-07-15T09:53:14.616Z,36.80
2018-07-15T09:55:43.256Z,40.10
2018-07-15T09:58:12.038Z,37.10
2018-07-15T10:00:46.516Z,35.00
2018-07-15T10:03:15.959Z,35.60
2018-07-15T10:05:44.906Z,35.30
2018-07-15T10:08:13.410Z,36.20
2018-07-15T10:10:42.199Z,35.70
2018-07-15T10:13:11.192Z,34.90
2018-07-15T10:15:39.606Z,32.50
2018-07-15T10:18:08.878Z,33.40
2018-07-15T10:20:38.429Z,34.00
2018-07-15T10:23:07.290Z,33.10
2018-07-15T10:25:36.107Z,35.80
2018-07-15T10:28:04.990Z,31.30
2018-07-15T10:30:34.052Z,32.50
2018-07-15T10:33:02.796Z,32.70
2018-07-15T10:35:32.335Z,32.70
2018-07-15T10:38:01.155Z,35.60
2018-07-15T10:40:31.048Z,34.30
2018-07-15T10:42:59.898Z,35.30
2018-07-15T10:45:28.775Z,32.40
2018-07-15T10:47:58.431Z,33.10
2018-07-15T10:50:27.193Z,36.30
2018-07-15T10:52:55.673Z,34.80
2018-07-15T10:55:24.306Z,34.20
2018-07-15T10:57:52.969Z,35.10
2018-07-15T11:00:22.527Z,33.50
2018-07-15T11:02:50.962Z,33.20
2018-07-15T11:05:19.893Z,32.80
2018-07-15T11:07:49.794Z,35.30
2018-07-15T11:10:18.223Z,34.20
2018-07-15T11:12:46.983Z,36.80
2018-07-15T11:15:16.031Z,33.40
2018-07-15T11:17:44.577Z,33.30
2018-07-15T11:20:13.864Z,36.50
2018-07-15T11:22:42.771Z,39.90
2018-07-15T11:25:11.323Z,38.60
2018-07-15T11:27:39.805Z,37.10
2018-07-15T11:30:08.515Z,36.30
2018-07-15T11:32:37.006Z,37.00
2018-07-15T11:35:05.930Z,38.60
2018-07-15T11:37:34.640Z,40.70
2018-07-15T11:40:03.239Z,38.10
2018-07-15T11:42:32.276Z,36.80
2018-07-15T11:45:00.983Z,39.40
2018-07-15T11:47:29.409Z,39.00
2018-07-15T11:49:58.278Z,37.40
2018-07-15T11:52:26.886Z,36.80
2018-07-15T11:57:24.389Z,37.70
2018-07-15T11:59:52.997Z,39.60
2018-07-15T12:02:21.529Z,38.40
2018-07-15T12:04:49.970Z,40.40
2018-07-15T12:07:18.720Z,41.60
2018-07-15T12:09:47.132Z,42.60
2018-07-15T12:12:16.886Z,40.30
2018-07-15T12:14:45.766Z,40.80
2018-07-15T12:17:14.444Z,40.90
2018-07-15T12:19:43.235Z,37.70
2018-07-15T12:22:13.024Z,41.40
2018-07-15T12:24:41.426Z,39.60
2018-07-15T12:27:10.744Z,38.30
2018-07-15T12:29:39.432Z,40.90
2018-07-15T12:32:08.335Z,40.00
2018-07-15T12:34:37.684Z,41.20
2018-07-15T12:37:06.187Z,44.10
2018-07-15T12:39:34.956Z,42.20
2018-07-15T12:42:03.725Z,41.90
2018-07-15T12:44:32.480Z,42.60
2018-07-15T12:47:01.617Z,41.90
2018-07-15T12:49:30.451Z,40.30
2018-07-15T12:51:59.065Z,39.50
2018-07-15T12:54:27.902Z,39.50
2018-07-15T12:56:56.869Z,35.90
2018-07-15T12:59:26.235Z,35.60
2018-07-15T13:01:55.041Z,43.20
2018-07-15T13:04:23.557Z,40.30
2018-07-15T13:06:52.452Z,38.20
2018-07-15T13:09:21.364Z,36.90
2018-07-15T13:11:50.514Z,36.40
2018-07-15T13:14:19.074Z,37.90
2018-07-15T13:16:47.652Z,37.20
2018-07-15T13:19:16.584Z,38.40
2018-07-15T13:21:46.671Z,42.20
2018-07-15T13:24:15.263Z,42.90
2018-07-15T13:26:43.687Z,42.30
2018-07-15T13:29:12.477Z,44.60
2018-07-15T13:31:41.159Z,46.00
2018-07-15T13:34:10.162Z,46.80
2018-07-15T13:36:38.763Z,44.70
2018-07-15T13:39:08.741Z,43.50
2018-07-15T13:41:37.355Z,44.10
2018-07-15T13:44:06.012Z,41.20
2018-07-15T13:46:34.623Z,40.10
2018-07-15T13:49:03.960Z,38.90
2018-07-15T13:51:32.874Z,40.40
2018-07-15T13:54:01.297Z,43.70
2018-07-15T13:56:29.956Z,43.50
2018-07-15T13:58:58.650Z,43.40
2018-07-15T14:01:27.391Z,44.20
2018-07-15T14:03:56.213Z,42.70
2018-07-15T14:06:25.652Z,45.90
2018-07-15T14:08:54.355Z,47.00
2018-07-15T14:11:22.811Z,46.80
2018-07-15T14:13:51.834Z,44.40
2018-07-15T14:16:20.331Z,45.80
2018-07-15T14:18:49.041Z,48.30
2018-07-15T14:21:17.744Z,50.50
2018-07-15T14:26:15.609Z,53.90
2018-07-15T14:28:45.084Z,55.00
2018-07-15T14:31:13.662Z,56.80
2018-07-15T14:33:42.980Z,57.70
2018-07-15T14:36:11.892Z,56.40
2018-07-15T14:38:40.580Z,58.20
2018-07-15T14:41:12.068Z,59.50
2018-07-15T14:43:41.640Z,61.10
2018-07-15T14:46:15.284Z,64.50
2018-07-15T14:48:43.764Z,68.50
2018-07-15T14:51:12.716Z,73.40
2018-07-15T14:53:41.768Z,79.50
2018-07-15T14:56:11.191Z,87.80
2018-07-15T14:58:40.788Z,93.80
2018-07-15T15:01:09.463Z,99.90
2018-07-15T15:03:39.006Z,99.90
2018-07-15T15:06:08.011Z,99.90
2018-07-15T15:08:39.431Z,99.90
2018-07-15T15:11:08.246Z,99.90
2018-07-15T15:13:37.041Z,99.90
2018-07-15T15:16:05.855Z,99.90
2018-07-15T15:18:37.559Z,99.90
2018-07-15T15:21:06.436Z,99.90
2018-07-15T15:23:37.381Z,99.90
2018-07-15T15:26:07.959Z,99.90
2018-07-15T15:28:38.288Z,99.90
2018-07-15T15:31:19.491Z,99.90
2018-07-15T15:33:48.740Z,99.90
2018-07-15T15:36:17.471Z,99.90
2018-07-15T15:38:46.365Z,99.90
2018-07-15T15:43:47.495Z,99.90
2018-07-15T15:46:16.153Z,99.90
2018-07-15T15:48:46.816Z,99.90
2018-07-15T15:51:15.509Z,99.90
2018-07-15T15:53:43.965Z,99.90
2018-07-15T15:56:12.456Z,99.90
2018-07-15T15:58:41.369Z,99.90
2018-07-15T16:01:10.687Z,99.90
2018-07-15T16:03:39.872Z,99.90
2018-07-15T16:06:09.921Z,99.90
2018-07-15T16:08:38.554Z,99.90
2018-07-15T16:11:07.652Z,99.90
2018-07-15T16:13:36.331Z,99.90
2018-07-15T16:16:04.841Z,99.90
2018-07-15T16:18:33.989Z,99.90
2018-07-15T16:21:03.328Z,99.90
2018-07-15T16:23:32.447Z,99.90
2018-07-15T16:26:01.539Z,99.90
2018-07-15T16:28:30.183Z,99.90
2018-07-15T16:30:58.593Z,99.90
2018-07-15T16:33:27.401Z,99.90
2018-07-15T16:35:56.087Z,99.90
2018-07-15T16:38:24.568Z,99.90
2018-07-15T16:40:53.271Z,99.90
2018-07-15T16:43:21.713Z,99.90
2018-07-15T16:45:50.270Z,99.90
2018-07-15T16:48:19.079Z,99.90
2018-07-15T16:50:47.495Z,99.90
2018-07-15T16:53:15.980Z,99.90
2018-07-15T16:55:45.326Z,99.90
2018-07-15T16:58:13.922Z,99.90
2018-07-15T17:00:42.623Z,99.90
2018-07-15T17:03:12.352Z,99.90
2018-07-15T17:05:41.139Z,99.90
2018-07-15T17:08:10.118Z,99.90
2018-07-15T17:10:38.587Z,99.90
2018-07-15T17:13:07.537Z,99.90
2018-07-15T17:15:36.529Z,99.90
2018-07-15T17:18:05.304Z,99.90
2018-07-15T17:20:33.757Z,99.90
2018-07-15T17:23:02.584Z,99.90
2018-07-15T17:25:31.001Z,99.90
2018-07-15T17:27:59.487Z,99.90
2018-07-15T17:30:28.398Z,99.90
2018-07-15T17:32:56.972Z,99.90
2018-07-15T17:35:25.897Z,99.90
2018-07-15T17:37:54.688Z,99.90
2018-07-15T17:40:23.583Z,99.90
2018-07-15T17:42:51.955Z,99.90
2018-07-15T17:45:20.812Z,99.90
2018-07-15T17:47:49.396Z,99.90
2018-07-15T17:50:18.492Z,99.90
2018-07-15T17:52:47.619Z,99.90
2018-07-15T17:55:17.733Z,99.90
2018-07-15T17:57:55.435Z,99.90
2018-07-15T18:00:25.770Z,99.90
2018-07-15T18:02:54.377Z,99.90
2018-07-15T18:05:24.848Z,99.90
2018-07-15T18:07:54.502Z,99.90
2018-07-15T18:10:24.496Z,99.90
2018-07-15T18:12:53.350Z,99.90
2018-07-15T18:15:22.777Z,99.90
2018-07-15T18:17:51.930Z,99.90
2018-07-15T18:20:21.117Z,99.90
2018-07-15T18:22:51.084Z,99.90
2018-07-15T18:25:20.496Z,99.90
2018-07-15T18:27:50.758Z,99.90
2018-07-15T18:30:19.221Z,99.90
2018-07-15T18:32:48.742Z,99.90
2018-07-15T18:35:18.259Z,99.90
2018-07-15T18:37:47.649Z,99.90
2018-07-15T18:40:16.518Z,99.90
2018-07-15T18:42:47.673Z,99.90
2018-07-15T18:45:18.202Z,99.90
2018-07-15T18:47:47.572Z,99.90
2018-07-15T18:50:17.286Z,99.90
2018-07-15T18:52:46.315Z,99.90
2018-07-15T18:57:43.109Z,99.90
2018-07-15T19:00:12.712Z,99.90
2018-07-15T19:02:41.876Z,99.90
2018-07-15T19:05:10.815Z,99.90
2018-07-15T19:07:40.486Z,99.90
2018-07-15T19:10:09.317Z,99.90
2018-07-15T19:12:38.024Z,99.90
2018-07-15T19:15:06.790Z,99.90
2018-07-15T19:17:36.369Z,99.90
2018-07-15T19:20:05.789Z,99.90
2018-07-15T19:22:34.376Z,99.90
2018-07-15T19:25:03.589Z,99.90
2018-07-15T19:27:32.376Z,99.90
2018-07-15T19:30:01.025Z,99.90
2018-07-15T19:32:29.731Z,99.90
2018-07-15T19:34:58.468Z,99.90
2018-07-15T19:37:27.510Z,99.90
2018-07-15T19:39:55.965Z,99.90
2018-07-15T19:42:24.833Z,99.90
2018-07-15T19:44:53.431Z,99.90
2018-07-15T19:47:22.219Z,99.90
2018-07-15T19:49:51.102Z,99.90
2018-07-15T19:52:20.124Z,99.90
2018-07-15T19:54:49.093Z,99.90
2018-07-15T19:57:17.647Z,99.90
2018-07-15T19:59:46.093Z,99.90
2018-07-15T20:02:14.880Z,99.90
2018-07-15T20:07:12.375Z,99.90
2018-07-15T20:09:40.991Z,99.90
2018-07-15T20:12:10.632Z,99.90
2018-07-15T20:14:39.654Z,99.90
2018-07-15T20:17:08.560Z,99.90
2018-07-15T20:19:37.512Z,99.90
2018-07-15T20:22:06.997Z,99.90
2018-07-15T20:24:36.235Z,99.90
2018-07-15T20:27:04.979Z,99.90
2018-07-15T20:29:33.832Z,99.90
2018-07-15T20:32:02.797Z,99.90
2018-07-15T20:34:31.449Z,99.90
2018-07-15T20:37:00.692Z,99.90
2018-07-15T20:39:29.350Z,99.90
2018-07-15T20:41:58.724Z,99.90
2018-07-15T20:44:28.019Z,99.90
2018-07-15T20:46:56.653Z,99.90
2018-07-15T20:49:25.583Z,99.90
2018-07-15T20:51:54.443Z,99.90
2018-07-15T20:54:23.505Z,99.90
2018-07-15T20:56:52.386Z,99.90
2018-07-15T20:59:21.125Z,99.90
2018-07-15T21:01:50.238Z,99.90
2018-07-15T21:04:18.752Z,99.90
2018-07-15T21:06:47.560Z,99.90
2018-07-15T21:09:16.595Z,99.90
2018-07-15T21:11:45.018Z,99.90
2018-07-15T21:14:13.621Z,99.90
2018-07-15T21:19:10.571Z,99.90
2018-07-15T21:21:39.080Z,99.90
2018-07-15T21:24:07.622Z,99.90
2018-07-15T21:26:37.919Z,99.90
2018-07-15T21:29:06.545Z,99.90
2018-07-15T21:31:35.387Z,99.90
2018-07-15T21:34:03.841Z,99.90
2018-07-15T21:36:32.292Z,99.90
2018-07-15T21:39:01.748Z,99.90
2018-07-15T21:41:30.245Z,99.90
2018-07-15T21:43:58.793Z,99.90
2018-07-15T21:46:27.469Z,99.90
2018-07-15T21:51:24.656Z,99.90
2018-07-15T21:53:53.129Z,99.90
